sensor_id;sensor_type;location;lat;lon;timestamp;pressure;altitude;pressure_sealevel;temperature;humidity
72061;BME280;59925;52.136;5.420;2024-01-07T00:00:24;101956.91;;;0.59;100.00
72061;BME280;59925;52.136;5.420;2024-01-07T00:02:51;101965.03;;;0.57;100.00
72061;BME280;59925;52.136;5.420;2024-01-07T00:05:17;101959.25;;;0.54;100.00
72061;BME280;59925;52.136;5.420;2024-01-07T00:07:44;101968.19;;;0.53;100.00
72061;BME280;59925;52.136;5.420;2024-01-07T00:10:11;101975.06;;;0.54;100.00
72061;BME280;59925;52.136;5.420;2024-01-07T00:12:37;101979.38;;;0.55;100.00
72061;BME280;59925;52.136;5.420;2024-01-07T00:15:04;101974.09;;;0.55;100.00
72061;BME280;59925;52.136;5.420;2024-01-07T00:17:31;101981.38;;;0.53;100.00
72061;BME280;59925;52.136;5.420;2024-01-07T00:19:58;101978.91;;;0.51;100.00
72061;BME280;59925;52.136;5.420;2024-01-07T00:22:24;101985.34;;;0.49;100.00
72061;BME280;59925;52.136;5.420;2024-01-07T00:24:51;101987.34;;;0.47;100.00
72061;BME280;59925;52.136;5.420;2024-01-07T00:27:18;101993.28;;;0.49;100.00
72061;BME280;59925;52.136;5.420;2024-01-07T00:29:44;101990.78;;;0.47;100.00
72061;BME280;59925;52.136;5.420;2024-01-07T00:32:11;101988.31;;;0.45;100.00
72061;BME280;59925;52.136;5.420;2024-01-07T00:34:37;101996.06;;;0.47;100.00
72061;BME280;59925;52.136;5.420;2024-01-07T00:37:04;101997.56;;;0.50;100.00
72061;BME280;59925;52.136;5.420;2024-01-07T00:39:31;101989.78;;;0.48;100.00
72061;BME280;59925;52.136;5.420;2024-01-07T00:41:58;101998.88;;;0.45;100.00
72061;BME280;59925;52.136;5.420;2024-01-07T00:44:24;101999.88;;;0.44;100.00
72061;BME280;59925;52.136;5.420;2024-01-07T00:46:51;101999.06;;;0.44;100.00
72061;BME280;59925;52.136;5.420;2024-01-07T00:49:18;101999.88;;;0.44;100.00
72061;BME280;59925;52.136;5.420;2024-01-07T00:51:44;102005.00;;;0.46;100.00
72061;BME280;59925;52.136;5.420;2024-01-07T00:54:11;102008.63;;;0.45;100.00
72061;BME280;59925;52.136;5.420;2024-01-07T00:56:38;102003.34;;;0.45;100.00
72061;BME280;59925;52.136;5.420;2024-01-07T00:59:04;102011.28;;;0.45;100.00
72061;BME280;59925;52.136;5.420;2024-01-07T01:01:31;102014.06;;;0.43;100.00
72061;BME280;59925;52.136;5.420;2024-01-07T01:03:58;102015.06;;;0.42;100.00
72061;BME280;59925;52.136;5.420;2024-01-07T01:06:25;102010.78;;;0.41;100.00
72061;BME280;59925;52.136;5.420;2024-01-07T01:08:53;102005.66;;;0.40;100.00
72061;BME280;59925;52.136;5.420;2024-01-07T01:11:20;102016.56;;;0.37;100.00
72061;BME280;59925;52.136;5.420;2024-01-07T01:13:46;102017.88;;;0.41;100.00
72061;BME280;59925;52.136;5.420;2024-01-07T01:16:13;102019.06;;;0.38;100.00
72061;BME280;59925;52.136;5.420;2024-01-07T01:18:39;102021.03;;;0.36;100.00
72061;BME280;59925;52.136;5.420;2024-01-07T01:21:06;102024.66;;;0.35;100.00
72061;BME280;59925;52.136;5.420;2024-01-07T01:23:33;102033.22;;;0.37;100.00
72061;BME280;59925;52.136;5.420;2024-01-07T01:26:00;102028.44;;;0.41;100.00
72061;BME280;59925;52.136;5.420;2024-01-07T01:28:27;102030.06;;;0.42;100.00
72061;BME280;59925;52.136;5.420;2024-01-07T01:30:53;102033.53;;;0.42;100.00
72061;BME280;59925;52.136;5.420;2024-01-07T01:33:20;102031.06;;;0.41;100.00
72061;BME280;59925;52.136;5.420;2024-01-07T01:35:46;102037.66;;;0.37;100.00
72061;BME280;59925;52.136;5.420;2024-01-07T01:38:13;102040.97;;;0.39;100.00
72061;BME280;59925;52.136;5.420;2024-01-07T01:40:39;102046.41;;;0.37;100.00
72061;BME280;59925;52.136;5.420;2024-01-07T01:43:06;102051.03;;;0.35;100.00
72061;BME280;59925;52.136;5.420;2024-01-07T01:45:33;102056.97;;;0.37;100.00
72061;BME280;59925;52.136;5.420;2024-01-07T01:48:00;102058.97;;;0.35;100.00
72061;BME280;59925;52.136;5.420;2024-01-07T01:50:27;102061.59;;;0.35;100.00
72061;BME280;59925;52.136;5.420;2024-01-07T01:52:54;102070.63;;;0.41;100.00
72061;BME280;59925;52.136;5.420;2024-01-07T01:55:22;102068.66;;;0.43;100.00
72061;BME280;59925;52.136;5.420;2024-01-07T01:57:50;102069.66;;;0.42;100.00
72061;BME280;59925;52.136;5.420;2024-01-07T02:00:18;102069.47;;;0.43;100.00
72061;BME280;59925;52.136;5.420;2024-01-07T02:02:45;102073.28;;;0.41;100.00
72061;BME280;59925;52.136;5.420;2024-01-07T02:05:11;102077.09;;;0.38;100.00
72061;BME280;59925;52.136;5.420;2024-01-07T02:07:40;102088.63;;;0.37;100.00
72061;BME280;59925;52.136;5.420;2024-01-07T02:10:07;102081.53;;;0.38;100.00
72061;BME280;59925;52.136;5.420;2024-01-07T02:12:33;102084.34;;;0.36;100.00
72061;BME280;59925;52.136;5.420;2024-01-07T02:15:00;102087.00;;;0.36;100.00
72061;BME280;59925;52.136;5.420;2024-01-07T02:17:26;102087.97;;;0.35;100.00
72061;BME280;59925;52.136;5.420;2024-01-07T02:19:53;102093.25;;;0.35;100.00
72061;BME280;59925;52.136;5.420;2024-01-07T02:22:20;102095.72;;;0.37;100.00
72061;BME280;59925;52.136;5.420;2024-01-07T02:24:46;102093.91;;;0.37;100.00
72061;BME280;59925;52.136;5.420;2024-01-07T02:27:13;102098.00;;;0.40;100.00
72061;BME280;59925;52.136;5.420;2024-01-07T02:29:40;102101.47;;;0.40;100.00
72061;BME280;59925;52.136;5.420;2024-01-07T02:32:06;102091.75;;;0.41;100.00
72061;BME280;59925;52.136;5.420;2024-01-07T02:34:33;102104.75;;;0.42;100.00
72061;BME280;59925;52.136;5.420;2024-01-07T02:36:59;102103.63;;;0.45;100.00
72061;BME280;59925;52.136;5.420;2024-01-07T02:39:26;102103.75;;;0.43;100.00
72061;BME280;59925;52.136;5.420;2024-01-07T02:41:53;102101.47;;;0.40;100.00
72061;BME280;59925;52.136;5.420;2024-01-07T02:44:19;102104.47;;;0.37;100.00
72061;BME280;59925;52.136;5.420;2024-01-07T02:46:46;102102.63;;;0.38;100.00
72061;BME280;59925;52.136;5.420;2024-01-07T02:49:12;102101.81;;;0.37;100.00
72061;BME280;59925;52.136;5.420;2024-01-07T02:51:40;102101.81;;;0.37;100.00
72061;BME280;59925;52.136;5.420;2024-01-07T02:54:06;102113.19;;;0.38;100.00
72061;BME280;59925;52.136;5.420;2024-01-07T02:56:33;102110.56;;;0.38;100.00
72061;BME280;59925;52.136;5.420;2024-01-07T02:59:00;102111.88;;;0.34;100.00
72061;BME280;59925;52.136;5.420;2024-01-07T03:01:26;102110.25;;;0.33;100.00
72061;BME280;59925;52.136;5.420;2024-01-07T03:03:53;102105.31;;;0.29;100.00
72061;BME280;59925;52.136;5.420;2024-01-07T03:06:20;102121.13;;;0.29;100.00
72061;BME280;59925;52.136;5.420;2024-01-07T03:08:47;102115.03;;;0.29;100.00
72061;BME280;59925;52.136;5.420;2024-01-07T03:11:14;102114.03;;;0.30;100.00
72061;BME280;59925;52.136;5.420;2024-01-07T03:13:41;102129.06;;;0.29;100.00
72061;BME280;59925;52.136;5.420;2024-01-07T03:16:07;102124.59;;;0.30;100.00
72061;BME280;59925;52.136;5.420;2024-01-07T03:18:34;102127.88;;;0.32;100.00
72061;BME280;59925;52.136;5.420;2024-01-07T03:21:01;102128.72;;;0.33;100.00
72061;BME280;59925;52.136;5.420;2024-01-07T03:23:27;102133.16;;;0.32;100.00
72061;BME280;59925;52.136;5.420;2024-01-07T03:25:54;102131.50;;;0.31;100.00
72061;BME280;59925;52.136;5.420;2024-01-07T03:28:20;102141.91;;;0.33;100.00
72061;BME280;59925;52.136;5.420;2024-01-07T03:30:47;102143.53;;;0.34;100.00
72061;BME280;59925;52.136;5.420;2024-01-07T03:33:13;102143.06;;;0.38;100.00
72061;BME280;59925;52.136;5.420;2024-01-07T03:35:40;102137.13;;;0.36;100.00
72061;BME280;59925;52.136;5.420;2024-01-07T03:38:07;102145.53;;;0.32;100.00
72061;BME280;59925;52.136;5.420;2024-01-07T03:40:33;102137.78;;;0.30;100.00
72061;BME280;59925;52.136;5.420;2024-01-07T03:43:00;102139.59;;;0.29;100.00
72061;BME280;59925;52.136;5.420;2024-01-07T03:45:26;102153.13;;;0.26;100.00
72061;BME280;59925;52.136;5.420;2024-01-07T03:47:53;102151.66;;;0.24;100.00
72061;BME280;59925;52.136;5.420;2024-01-07T03:50:20;102153.13;;;0.26;100.00
72061;BME280;59925;52.136;5.420;2024-01-07T03:52:46;102155.09;;;0.24;100.00
72061;BME280;59925;52.136;5.420;2024-01-07T03:55:13;102154.28;;;0.24;100.00
72061;BME280;59925;52.136;5.420;2024-01-07T03:57:39;102162.03;;;0.25;100.00
72061;BME280;59925;52.136;5.420;2024-01-07T04:00:07;102163.84;;;0.25;100.00
72061;BME280;59925;52.136;5.420;2024-01-07T04:02:34;102172.41;;;0.19;100.00
72061;BME280;59925;52.136;5.420;2024-01-07T04:05:01;102174.06;;;0.20;100.00
72061;BME280;59925;52.136;5.420;2024-01-07T04:07:27;102181.16;;;0.19;100.00
72061;BME280;59925;52.136;5.420;2024-01-07T04:09:54;102176.72;;;0.20;100.00
72061;BME280;59925;52.136;5.420;2024-01-07T04:12:20;102182.66;;;0.22;100.00
72061;BME280;59925;52.136;5.420;2024-01-07T04:14:47;102184.44;;;0.21;100.00
72061;BME280;59925;52.136;5.420;2024-01-07T04:17:14;102182.97;;;0.19;100.00
72061;BME280;59925;52.136;5.420;2024-01-07T04:19:40;102191.88;;;0.18;100.00
72061;BME280;59925;52.136;5.420;2024-01-07T04:22:07;102186.44;;;0.19;100.00
72061;BME280;59925;52.136;5.420;2024-01-07T04:24:34;102195.00;;;0.21;100.00
72061;BME280;59925;52.136;5.420;2024-01-07T04:27:00;102200.25;;;0.21;100.00
72061;BME280;59925;52.136;5.420;2024-01-07T04:29:27;102198.00;;;0.18;100.00
72061;BME280;59925;52.136;5.420;2024-01-07T04:31:53;102197.00;;;0.19;100.00
72061;BME280;59925;52.136;5.420;2024-01-07T04:34:20;102198.78;;;0.19;100.00
72061;BME280;59925;52.136;5.420;2024-01-07T04:36:46;102205.41;;;0.23;100.00
72061;BME280;59925;52.136;5.420;2024-01-07T04:39:14;102215.94;;;0.23;100.00
72061;BME280;59925;52.136;5.420;2024-01-07T04:41:40;102211.47;;;0.23;100.00
72061;BME280;59925;52.136;5.420;2024-01-07T04:44:09;102215.94;;;0.23;100.00
72061;BME280;59925;52.136;5.420;2024-01-07T04:46:38;102215.09;;;0.22;100.00
72061;BME280;59925;52.136;5.420;2024-01-07T04:49:05;102224.00;;;0.21;100.00
72061;BME280;59925;52.136;5.420;2024-01-07T04:51:35;102224.00;;;0.21;100.00
72061;BME280;59925;52.136;5.420;2024-01-07T04:54:03;102231.78;;;0.23;100.00
72061;BME280;59925;52.136;5.420;2024-01-07T04:56:29;102232.41;;;0.17;100.00
72061;BME280;59925;52.136;5.420;2024-01-07T04:58:56;102227.31;;;0.15;100.00
72061;BME280;59925;52.136;5.420;2024-01-07T05:01:22;102239.03;;;0.21;100.00
72061;BME280;59925;52.136;5.420;2024-01-07T05:03:49;102243.31;;;0.22;100.00
72061;BME280;59925;52.136;5.420;2024-01-07T05:06:15;102244.28;;;0.21;100.00
72061;BME280;59925;52.136;5.420;2024-01-07T05:08:42;102246.94;;;0.21;100.00
72061;BME280;59925;52.136;5.420;2024-01-07T05:11:09;102249.56;;;0.21;100.00
72061;BME280;59925;52.136;5.420;2024-01-07T05:13:36;102249.41;;;0.22;100.00
72061;BME280;59925;52.136;5.420;2024-01-07T05:16:02;102250.38;;;0.21;100.00
72061;BME280;59925;52.136;5.420;2024-01-07T05:18:29;102256.31;;;0.23;100.00
72061;BME280;59925;52.136;5.420;2024-01-07T05:20:56;102256.19;;;0.25;100.00
72061;BME280;59925;52.136;5.420;2024-01-07T05:23:23;102261.78;;;0.22;100.00
72061;BME280;59925;52.136;5.420;2024-01-07T05:25:49;102266.22;;;0.21;100.00
72061;BME280;59925;52.136;5.420;2024-01-07T05:28:16;102271.66;;;0.20;100.00
72061;BME280;59925;52.136;5.420;2024-01-07T05:30:46;102270.84;;;0.19;100.00
72061;BME280;59925;52.136;5.420;2024-01-07T05:33:13;102278.75;;;0.19;100.00
72061;BME280;59925;52.136;5.420;2024-01-07T05:35:39;102274.31;;;0.20;100.00
72061;BME280;59925;52.136;5.420;2024-01-07T05:38:06;102283.03;;;0.20;100.00
72061;BME280;59925;52.136;5.420;2024-01-07T05:40:33;102282.88;;;0.22;100.00
72061;BME280;59925;52.136;5.420;2024-01-07T05:42:59;102275.09;;;0.20;100.00
72061;BME280;59925;52.136;5.420;2024-01-07T05:45:26;102286.81;;;0.18;100.00
72061;BME280;59925;52.136;5.420;2024-01-07T05:47:52;102288.47;;;0.19;100.00
72061;BME280;59925;52.136;5.420;2024-01-07T05:50:19;102291.94;;;0.19;100.00
72061;BME280;59925;52.136;5.420;2024-01-07T05:52:46;102293.56;;;0.20;100.00
72061;BME280;59925;52.136;5.420;2024-01-07T05:55:13;102298.84;;;0.20;100.00
72061;BME280;59925;52.136;5.420;2024-01-07T05:57:40;102312.03;;;0.20;100.00
72061;BME280;59925;52.136;5.420;2024-01-07T06:00:07;102307.78;;;0.19;100.00
72061;BME280;59925;52.136;5.420;2024-01-07T06:02:34;102317.31;;;0.20;100.00
72061;BME280;59925;52.136;5.420;2024-01-07T06:05:02;102309.75;;;0.17;100.00
72061;BME280;59925;52.136;5.420;2024-01-07T06:07:29;102318.78;;;0.14;100.00
72061;BME280;59925;52.136;5.420;2024-01-07T06:09:56;102319.47;;;0.17;100.00
72061;BME280;59925;52.136;5.420;2024-01-07T06:12:23;102316.16;;;0.14;100.00
72061;BME280;59925;52.136;5.420;2024-01-07T06:14:49;102317.13;;;0.13;100.00
72061;BME280;59925;52.136;5.420;2024-01-07T06:17:16;102329.34;;;0.14;100.00
72061;BME280;59925;52.136;5.420;2024-01-07T06:19:42;102331.00;;;0.15;100.00
72061;BME280;59925;52.136;5.420;2024-01-07T06:22:09;102337.91;;;0.17;100.00
72061;BME280;59925;52.136;5.420;2024-01-07T06:24:36;102331.84;;;0.16;100.00
72061;BME280;59925;52.136;5.420;2024-01-07T06:27:02;102335.78;;;0.12;100.00
72061;BME280;59925;52.136;5.420;2024-01-07T06:29:30;102352.75;;;0.09;100.00
72061;BME280;59925;52.136;5.420;2024-01-07T06:31:56;102355.88;;;0.05;100.00
72061;BME280;59925;52.136;5.420;2024-01-07T06:34:23;102359.00;;;0.08;100.00
72061;BME280;59925;52.136;5.420;2024-01-07T06:36:50;102361.66;;;0.08;100.00
72061;BME280;59925;52.136;5.420;2024-01-07T06:39:16;102360.00;;;0.07;100.00
72061;BME280;59925;52.136;5.420;2024-01-07T06:41:43;102367.25;;;0.05;100.00
72061;BME280;59925;52.136;5.420;2024-01-07T06:44:09;102375.16;;;0.05;100.00
72061;BME280;59925;52.136;5.420;2024-01-07T06:46:36;102364.78;;;0.04;100.00
72061;BME280;59925;52.136;5.420;2024-01-07T06:49:02;102367.72;;;0.01;100.00
72061;BME280;59925;52.136;5.420;2024-01-07T06:51:29;102381.72;;;0.01;100.00
72061;BME280;59925;52.136;5.420;2024-01-07T06:53:56;102381.72;;;0.01;100.00
72061;BME280;59925;52.136;5.420;2024-01-07T06:56:22;102386.19;;;0.01;100.00
72061;BME280;59925;52.136;5.420;2024-01-07T06:58:50;102388.16;;;-0.02;100.00
72061;BME280;59925;52.136;5.420;2024-01-07T07:01:20;102395.25;;;-0.02;100.00
72061;BME280;59925;52.136;5.420;2024-01-07T07:03:47;102396.06;;;-0.02;100.00
72061;BME280;59925;52.136;5.420;2024-01-07T07:06:14;102395.94;;;0.00;100.00
72061;BME280;59925;52.136;5.420;2024-01-07T07:08:41;102403.97;;;-0.02;100.00
72061;BME280;59925;52.136;5.420;2024-01-07T07:11:07;102412.06;;;-0.03;100.00
72061;BME280;59925;52.136;5.420;2024-01-07T07:13:34;102405.81;;;-0.02;100.00
72061;BME280;59925;52.136;5.420;2024-01-07T07:16:00;102416.66;;;-0.05;100.00
72061;BME280;59925;52.136;5.420;2024-01-07T07:18:27;102415.81;;;-0.06;100.00
72061;BME280;59925;52.136;5.420;2024-01-07T07:20:53;102426.53;;;-0.07;100.00
72061;BME280;59925;52.136;5.420;2024-01-07T07:23:20;102421.25;;;-0.07;100.00
72061;BME280;59925;52.136;5.420;2024-01-07T07:25:46;102429.16;;;-0.07;100.00
72061;BME280;59925;52.136;5.420;2024-01-07T07:28:13;102432.78;;;-0.08;100.00
72061;BME280;59925;52.136;5.420;2024-01-07T07:30:40;102429.16;;;-0.07;100.00
72061;BME280;59925;52.136;5.420;2024-01-07T07:33:06;102438.72;;;-0.06;100.00
72061;BME280;59925;52.136;5.420;2024-01-07T07:35:33;102436.56;;;-0.11;100.00
72061;BME280;59925;52.136;5.420;2024-01-07T07:37:59;102444.50;;;-0.11;100.00
72061;BME280;59925;52.136;5.420;2024-01-07T07:40:26;102439.22;;;-0.11;100.00
72061;BME280;59925;52.136;5.420;2024-01-07T07:42:52;102452.09;;;-0.08;100.00
72061;BME280;59925;52.136;5.420;2024-01-07T07:45:19;102452.09;;;-0.08;100.00
72061;BME280;59925;52.136;5.420;2024-01-07T07:47:45;102453.88;;;-0.08;100.00
72061;BME280;59925;52.136;5.420;2024-01-07T07:50:12;102460.97;;;-0.09;100.00
72061;BME280;59925;52.136;5.420;2024-01-07T07:52:41;102470.53;;;-0.08;100.00
72061;BME280;59925;52.136;5.420;2024-01-07T07:55:10;102474.97;;;-0.08;100.00
72061;BME280;59925;52.136;5.420;2024-01-07T07:57:37;102479.94;;;-0.05;100.00
72061;BME280;59925;52.136;5.420;2024-01-07T08:00:07;102478.97;;;-0.04;100.00
72061;BME280;59925;52.136;5.420;2024-01-07T08:02:34;102487.84;;;-0.05;100.00
72061;BME280;59925;52.136;5.420;2024-01-07T08:05:00;102496.75;;;-0.06;100.00
72061;BME280;59925;52.136;5.420;2024-01-07T08:07:27;102497.34;;;-0.12;100.00
72061;BME280;59925;52.136;5.420;2024-01-07T08:09:53;102504.97;;;-0.09;100.00
72061;BME280;59925;52.136;5.420;2024-01-07T08:12:23;102515.19;;;-0.06;100.00
72061;BME280;59925;52.136;5.420;2024-01-07T08:14:50;102511.22;;;-0.10;100.00
72061;BME280;59925;52.136;5.420;2024-01-07T08:17:16;102514.81;;;-0.11;100.00
72061;BME280;59925;52.136;5.420;2024-01-07T08:19:43;102522.09;;;-0.13;100.00
72061;BME280;59925;52.136;5.420;2024-01-07T08:22:10;102517.81;;;-0.14;100.00
72061;BME280;59925;52.136;5.420;2024-01-07T08:24:36;102518.91;;;-0.17;100.00
72061;BME280;59925;52.136;5.420;2024-01-07T08:27:04;102531.28;;;-0.18;100.00
72061;BME280;59925;52.136;5.420;2024-01-07T08:29:30;102517.25;;;-0.18;100.00
72061;BME280;59925;52.136;5.420;2024-01-07T08:31:57;102531.59;;;-0.21;100.00
72061;BME280;59925;52.136;5.420;2024-01-07T08:34:23;102534.06;;;-0.19;100.00
72061;BME280;59925;52.136;5.420;2024-01-07T08:36:50;102535.22;;;-0.22;100.00
72061;BME280;59925;52.136;5.420;2024-01-07T08:39:17;102545.44;;;-0.19;100.00
72061;BME280;59925;52.136;5.420;2024-01-07T08:41:43;102545.75;;;-0.22;100.00
72061;BME280;59925;52.136;5.420;2024-01-07T08:44:10;102543.41;;;-0.25;100.00
72061;BME280;59925;52.136;5.420;2024-01-07T08:46:37;102550.97;;;-0.30;100.00
72061;BME280;59925;52.136;5.420;2024-01-07T08:49:04;102552.31;;;-0.26;100.00
72061;BME280;59925;52.136;5.420;2024-01-07T08:51:31;102553.97;;;-0.25;100.00
72061;BME280;59925;52.136;5.420;2024-01-07T08:53:58;102560.38;;;-0.27;100.00
72061;BME280;59925;52.136;5.420;2024-01-07T08:56:25;102569.25;;;-0.28;100.00
72061;BME280;59925;52.136;5.420;2024-01-07T08:58:52;102571.38;;;-0.32;100.00
72061;BME280;59925;52.136;5.420;2024-01-07T09:01:18;102573.84;;;-0.31;100.00
72061;BME280;59925;52.136;5.420;2024-01-07T09:03:45;102578.03;;;-0.28;100.00
72061;BME280;59925;52.136;5.420;2024-01-07T09:06:12;102582.75;;;-0.32;100.00
72061;BME280;59925;52.136;5.420;2024-01-07T09:08:38;102587.38;;;-0.34;100.00
72061;BME280;59925;52.136;5.420;2024-01-07T09:11:05;102589.66;;;-0.31;100.00
72061;BME280;59925;52.136;5.420;2024-01-07T09:13:32;102596.31;;;-0.26;100.00
72061;BME280;59925;52.136;5.420;2024-01-07T09:15:59;102592.69;;;-0.25;100.00
72061;BME280;59925;52.136;5.420;2024-01-07T09:18:25;102601.78;;;-0.20;100.00
72061;BME280;59925;52.136;5.420;2024-01-07T09:20:52;102604.25;;;-0.18;100.00
72061;BME280;59925;52.136;5.420;2024-01-07T09:23:18;102609.22;;;-0.15;100.00
72061;BME280;59925;52.136;5.420;2024-01-07T09:25:45;102609.53;;;-0.18;100.00
72061;BME280;59925;52.136;5.420;2024-01-07T09:28:12;102615.94;;;-0.21;100.00
72061;BME280;59925;52.136;5.420;2024-01-07T09:30:39;102617.44;;;-0.18;100.00
72061;BME280;59925;52.136;5.420;2024-01-07T09:33:06;102611.19;;;-0.17;100.00
72061;BME280;59925;52.136;5.420;2024-01-07T09:35:33;102627.84;;;-0.17;100.00
72061;BME280;59925;52.136;5.420;2024-01-07T09:37:59;102631.47;;;-0.18;100.00
72061;BME280;59925;52.136;5.420;2024-01-07T09:40:31;102634.78;;;-0.16;100.00
72061;BME280;59925;52.136;5.420;2024-01-07T09:42:58;102633.13;;;-0.17;100.00
72061;BME280;59925;52.136;5.420;2024-01-07T09:45:26;102643.66;;;-0.17;100.00
72061;BME280;59925;52.136;5.420;2024-01-07T09:47:53;102643.50;;;-0.15;100.00
72061;BME280;59925;52.136;5.420;2024-01-07T09:50:19;102650.44;;;-0.14;100.00
72061;BME280;59925;52.136;5.420;2024-01-07T09:52:46;102656.00;;;-0.17;100.00
72061;BME280;59925;52.136;5.420;2024-01-07T09:55:25;102659.41;;;-0.25;100.00
72061;BME280;59925;52.136;5.420;2024-01-07T09:57:53;102661.22;;;-0.25;100.00
72061;BME280;59925;52.136;5.420;2024-01-07T10:00:20;102671.59;;;-0.24;100.00
72061;BME280;59925;52.136;5.420;2024-01-07T10:02:47;102651.28;;;-0.32;100.00
72061;BME280;59925;52.136;5.420;2024-01-07T10:05:14;102662.38;;;-0.28;100.00
72061;BME280;59925;52.136;5.420;2024-01-07T10:07:40;102662.19;;;-0.26;100.00
72061;BME280;59925;52.136;5.420;2024-01-07T10:10:17;102663.34;;;-0.29;100.00
72061;BME280;59925;52.136;5.420;2024-01-07T10:12:45;102666.50;;;-0.25;100.00
72061;BME280;59925;52.136;5.420;2024-01-07T10:15:15;102665.34;;;-0.23;100.00
72061;BME280;59925;52.136;5.420;2024-01-07T10:17:41;102663.41;;;-0.21;100.00
72061;BME280;59925;52.136;5.420;2024-01-07T10:20:09;102665.88;;;-0.19;100.00
72061;BME280;59925;52.136;5.420;2024-01-07T10:22:37;102672.38;;;-0.13;100.00
72061;BME280;59925;52.136;5.420;2024-01-07T10:25:05;102676.84;;;-0.06;100.00
72061;BME280;59925;52.136;5.420;2024-01-07T10:27:35;102685.31;;;-0.02;100.00
72061;BME280;59925;52.136;5.420;2024-01-07T10:30:03;102685.41;;;0.14;100.00
72061;BME280;59925;52.136;5.420;2024-01-07T10:32:30;102683.81;;;0.22;100.00
72061;BME280;59925;52.136;5.420;2024-01-07T10:35:05;102697.94;;;0.39;100.00
72061;BME280;59925;52.136;5.420;2024-01-07T10:37:33;102700.19;;;0.52;100.00
72061;BME280;59925;52.136;5.420;2024-01-07T10:40:00;102710.09;;;0.58;100.00
72061;BME280;59925;52.136;5.420;2024-01-07T10:42:33;102704.16;;;0.56;100.00
72061;BME280;59925;52.136;5.420;2024-01-07T10:45:00;102710.63;;;0.61;100.00
72061;BME280;59925;52.136;5.420;2024-01-07T10:47:30;102708.22;;;0.76;100.00
72061;BME280;59925;52.136;5.420;2024-01-07T10:50:01;102719.47;;;0.79;100.00
72061;BME280;59925;52.136;5.420;2024-01-07T10:52:29;102723.50;;;0.65;100.00
72061;BME280;59925;52.136;5.420;2024-01-07T10:55:04;102717.06;;;0.67;99.45
72061;BME280;59925;52.136;5.420;2024-01-07T11:00:05;102712.63;;;0.68;98.31
72061;BME280;59925;52.136;5.420;2024-01-07T11:02:41;102707.91;;;0.80;98.17
72061;BME280;59925;52.136;5.420;2024-01-07T11:05:23;102713.25;;;0.96;97.83
72061;BME280;59925;52.136;5.420;2024-01-07T11:08:05;102720.50;;;0.94;96.82
72061;BME280;59925;52.136;5.420;2024-01-07T11:10:43;102711.47;;;1.05;96.76
72061;BME280;59925;52.136;5.420;2024-01-07T11:13:38;102717.72;;;0.96;95.58
72061;BME280;59925;52.136;5.420;2024-01-07T11:16:08;102716.88;;;0.95;95.70
72061;BME280;59925;52.136;5.420;2024-01-07T11:18:46;102721.66;;;0.91;95.86
72061;BME280;59925;52.136;5.420;2024-01-07T11:21:21;102715.38;;;0.84;95.73
72061;BME280;59925;52.136;5.420;2024-01-07T11:23:48;102710.13;;;1.01;96.34
72061;BME280;59925;52.136;5.420;2024-01-07T11:26:14;102710.22;;;1.17;95.28
72061;BME280;59925;52.136;5.420;2024-01-07T11:31:15;102708.47;;;1.51;94.92
72061;BME280;59925;52.136;5.420;2024-01-07T11:33:44;102708.19;;;1.71;94.45
72061;BME280;59925;52.136;5.420;2024-01-07T11:36:12;102720.94;;;1.92;93.79
72061;BME280;59925;52.136;5.420;2024-01-07T11:38:49;102716.13;;;1.71;92.84
72061;BME280;59925;52.136;5.420;2024-01-07T11:41:20;102716.75;;;1.64;92.03
72061;BME280;59925;52.136;5.420;2024-01-07T11:43:57;102720.22;;;1.48;91.48
72061;BME280;59925;52.136;5.420;2024-01-07T11:46:32;102723.66;;;1.32;91.65
72061;BME280;59925;52.136;5.420;2024-01-07T11:48:59;102718.31;;;1.16;90.87
72061;BME280;59925;52.136;5.420;2024-01-07T11:51:30;102717.56;;;0.97;91.27
72061;BME280;59925;52.136;5.420;2024-01-07T11:53:59;102722.50;;;0.92;91.15
72061;BME280;59925;52.136;5.420;2024-01-07T11:56:25;102719.00;;;0.83;91.67
72061;BME280;59925;52.136;5.420;2024-01-07T11:58:55;102724.78;;;0.87;90.89
72061;BME280;59925;52.136;5.420;2024-01-07T12:01:23;102715.31;;;1.11;91.09
72061;BME280;59925;52.136;5.420;2024-01-07T12:03:50;102717.22;;;1.43;90.66
72061;BME280;59925;52.136;5.420;2024-01-07T12:06:17;102713.31;;;1.64;90.17
72061;BME280;59925;52.136;5.420;2024-01-07T12:08:43;102705.53;;;1.71;89.77
72061;BME280;59925;52.136;5.420;2024-01-07T12:11:11;102710.50;;;1.90;89.59
72061;BME280;59925;52.136;5.420;2024-01-07T12:13:39;102712.31;;;1.98;89.23
72061;BME280;59925;52.136;5.420;2024-01-07T12:16:07;102711.31;;;1.82;87.85
72061;BME280;59925;52.136;5.420;2024-01-07T12:18:37;102716.28;;;1.94;87.47
72061;BME280;59925;52.136;5.420;2024-01-07T12:21:05;102716.31;;;2.02;87.83
72061;BME280;59925;52.136;5.420;2024-01-07T12:23:35;102726.69;;;1.79;86.14
72061;BME280;59925;52.136;5.420;2024-01-07T12:26:09;102729.34;;;1.79;86.59
72061;BME280;59925;52.136;5.420;2024-01-07T12:28:37;102728.31;;;1.55;86.04
72061;BME280;59925;52.136;5.420;2024-01-07T12:31:05;102725.50;;;1.48;86.34
72061;BME280;59925;52.136;5.420;2024-01-07T12:33:32;102732.38;;;1.33;86.23
72061;BME280;59925;52.136;5.420;2024-01-07T12:36:01;102741.53;;;1.55;86.27
72061;BME280;59925;52.136;5.420;2024-01-07T12:38:28;102734.06;;;1.42;84.67
72061;BME280;59925;52.136;5.420;2024-01-07T12:40:55;102745.13;;;1.46;84.71
72061;BME280;59925;52.136;5.420;2024-01-07T12:43:22;102741.38;;;1.57;85.06
72061;BME280;59925;52.136;5.420;2024-01-07T12:45:51;102742.22;;;1.65;84.98
72061;BME280;59925;52.136;5.420;2024-01-07T12:48:18;102740.19;;;1.59;84.34
72061;BME280;59925;52.136;5.420;2024-01-07T12:50:45;102748.00;;;1.61;84.92
72061;BME280;59925;52.136;5.420;2024-01-07T12:53:11;102756.09;;;1.76;84.75